sensor_id;sensor_type;location;lat;lon;timestamp;pressure;altitude;pressure_sealevel;temperature;humidity
24013;BME280;12220;50.194;18.948;2024-01-15T00:00:19;100083.17;;;1.59;70.02
24013;BME280;12220;50.194;18.948;2024-01-15T00:02:25;100084.86;;;1.61;70.07
24013;BME280;12220;50.194;18.948;2024-01-15T00:04:27;100073.07;;;1.64;70.06
24013;BME280;12220;50.194;18.948;2024-01-15T00:06:29;100073.07;;;1.64;70.08
24013;BME280;12220;50.194;18.948;2024-01-15T00:08:34;100021.32;;;1.33;70.04
24013;BME280;12220;50.194;18.948;2024-01-15T00:10:35;100065.84;;;1.64;70.04
24013;BME280;12220;50.194;18.948;2024-01-15T00:12:37;100067.60;;;1.65;70.08
24013;BME280;12220;50.194;18.948;2024-01-15T00:14:38;100059.50;;;1.65;70.10
24013;BME280;12220;50.194;18.948;2024-01-15T00:16:49;100054.91;;;1.67;70.19
24013;BME280;12220;50.194;18.948;2024-01-15T00:18:52;100041.41;;;1.67;70.09
24013;BME280;12220;50.194;18.948;2024-01-15T00:20:53;100035.14;;;1.67;70.03
24013;BME280;12220;50.194;18.948;2024-01-15T00:22:55;100037.84;;;1.67;69.94
24013;BME280;12220;50.194;18.948;2024-01-15T00:25:04;100034.49;;;1.62;69.65
24013;BME280;12220;50.194;18.948;2024-01-15T00:27:06;100031.90;;;1.59;69.67
24013;BME280;12220;50.194;18.948;2024-01-15T00:29:08;100031.72;;;1.63;69.74
24013;BME280;12220;50.194;18.948;2024-01-15T00:31:09;100041.84;;;1.58;69.59
24013;BME280;12220;50.194;18.948;2024-01-15T00:33:19;100045.39;;;1.59;69.61
24013;BME280;12220;50.194;18.948;2024-01-15T00:35:20;100034.53;;;1.60;69.66
24013;BME280;12220;50.194;18.948;2024-01-15T00:37:22;100032.73;;;1.61;69.61
24013;BME280;12220;50.194;18.948;2024-01-15T00:39:23;100029.14;;;1.60;69.59
24013;BME280;12220;50.194;18.948;2024-01-15T00:41:34;100022.87;;;1.60;69.59
24013;BME280;12220;50.194;18.948;2024-01-15T00:43:36;100023.88;;;1.57;69.62
24013;BME280;12220;50.194;18.948;2024-01-15T00:45:37;100022.95;;;1.58;69.73
24013;BME280;12220;50.194;18.948;2024-01-15T00:47:38;100032.94;;;1.56;69.79
24013;BME280;12220;50.194;18.948;2024-01-15T00:49:49;100025.57;;;1.60;69.85
24013;BME280;12220;50.194;18.948;2024-01-15T00:51:51;100021.93;;;1.61;69.85
24013;BME280;12220;50.194;18.948;2024-01-15T00:53:52;100022.00;;;1.59;69.83
24013;BME280;12220;50.194;18.948;2024-01-15T00:55:56;100020.24;;;1.58;69.86
24013;BME280;12220;50.194;18.948;2024-01-15T00:58:04;100009.52;;;1.56;69.92
24013;BME280;12220;50.194;18.948;2024-01-15T01:00:06;100008.66;;;1.56;69.98
24013;BME280;12220;50.194;18.948;2024-01-15T01:02:09;100007.17;;;1.49;70.09
24013;BME280;12220;50.194;18.948;2024-01-15T01:04:11;100006.27;;;1.48;70.19
24013;BME280;12220;50.194;18.948;2024-01-15T01:06:19;100002.65;;;1.49;70.22
24013;BME280;12220;50.194;18.948;2024-01-15T01:08:21;99995.34;;;1.51;70.27
24013;BME280;12220;50.194;18.948;2024-01-15T01:10:22;99995.55;;;1.47;70.29
24013;BME280;12220;50.194;18.948;2024-01-15T01:12:25;99985.66;;;1.47;70.35
24013;BME280;12220;50.194;18.948;2024-01-15T01:14:35;99986.45;;;1.49;70.35
24013;BME280;12220;50.194;18.948;2024-01-15T01:16:36;99985.59;;;1.49;70.33
24013;BME280;12220;50.194;18.948;2024-01-15T01:18:39;99977.50;;;1.49;70.23
24013;BME280;12220;50.194;18.948;2024-01-15T01:20:41;99982.07;;;1.47;70.23
24013;BME280;12220;50.194;18.948;2024-01-15T01:22:50;99985.59;;;1.49;70.23
24013;BME280;12220;50.194;18.948;2024-01-15T01:24:51;99977.56;;;1.47;70.24
24013;BME280;12220;50.194;18.948;2024-01-15T01:26:52;99974.72;;;1.50;70.25
24013;BME280;12220;50.194;18.948;2024-01-15T01:28:54;99965.74;;;1.50;70.29
24013;BME280;12220;50.194;18.948;2024-01-15T01:31:05;99965.74;;;1.50;70.32
24013;BME280;12220;50.194;18.948;2024-01-15T01:33:06;99956.71;;;1.51;70.26
24013;BME280;12220;50.194;18.948;2024-01-15T01:35:07;99961.09;;;1.53;70.27
24013;BME280;12220;50.194;18.948;2024-01-15T01:37:12;99951.02;;;1.57;70.22
24013;BME280;12220;50.194;18.948;2024-01-15T01:39:20;99952.78;;;1.58;70.23
24013;BME280;12220;50.194;18.948;2024-01-15T01:41:21;99951.92;;;1.58;70.00
24013;BME280;12220;50.194;18.948;2024-01-15T01:43:25;99942.13;;;1.55;69.89
24013;BME280;12220;50.194;18.948;2024-01-15T01:45:26;99942.13;;;1.55;69.82
24013;BME280;12220;50.194;18.948;2024-01-15T01:47:35;99931.34;;;1.55;69.87
24013;BME280;12220;50.194;18.948;2024-01-15T01:49:37;99929.87;;;1.48;69.46
24013;BME280;12220;50.194;18.948;2024-01-15T01:51:39;99921.77;;;1.48;69.47
24013;BME280;12220;50.194;18.948;2024-01-15T01:53:40;99920.69;;;1.52;69.55
24013;BME280;12220;50.194;18.948;2024-01-15T01:55:50;99955.69;;;1.53;69.60
24013;BME280;12220;50.194;18.948;2024-01-15T01:57:52;99898.03;;;1.56;69.53
24013;BME280;12220;50.194;18.948;2024-01-15T01:59:55;99900.79;;;1.54;69.34
24013;BME280;12220;50.194;18.948;2024-01-15T02:01:57;99901.73;;;1.53;69.13
24013;BME280;12220;50.194;18.948;2024-01-15T02:04:05;99907.13;;;1.53;68.93
24013;BME280;12220;50.194;18.948;2024-01-15T02:06:07;99907.13;;;1.53;68.99
24013;BME280;12220;50.194;18.948;2024-01-15T02:08:09;99906.38;;;1.50;68.74
24013;BME280;12220;50.194;18.948;2024-01-15T02:10:10;99903.61;;;1.51;68.77
24013;BME280;12220;50.194;18.948;2024-01-15T02:12:20;99895.73;;;1.47;68.49
24013;BME280;12220;50.194;18.948;2024-01-15T02:14:22;99900.27;;;1.46;68.50
24013;BME280;12220;50.194;18.948;2024-01-15T02:16:23;99899.26;;;1.49;68.60
24013;BME280;12220;50.194;18.948;2024-01-15T02:18:25;99898.28;;;1.50;68.47
24013;BME280;12220;50.194;18.948;2024-01-15T02:20:36;99892.95;;;1.48;68.34
24013;BME280;12220;50.194;18.948;2024-01-15T02:22:37;99889.61;;;1.43;68.09
24013;BME280;12220;50.194;18.948;2024-01-15T02:24:39;99901.56;;;1.37;67.72
24013;BME280;12220;50.194;18.948;2024-01-15T02:26:43;99902.93;;;1.27;67.62
24013;BME280;12220;50.194;18.948;2024-01-15T02:28:51;99892.86;;;1.31;67.74
24013;BME280;12220;50.194;18.948;2024-01-15T02:30:52;99887.26;;;1.35;67.68
24013;BME280;12220;50.194;18.948;2024-01-15T02:32:54;99881.86;;;1.35;67.72
24013;BME280;12220;50.194;18.948;2024-01-15T02:34:55;99870.20;;;1.35;67.58
24013;BME280;12220;50.194;18.948;2024-01-15T02:37:05;99869.12;;;1.39;67.76
24013;BME280;12220;50.194;18.948;2024-01-15T02:39:07;99867.43;;;1.36;67.66
24013;BME280;12220;50.194;18.948;2024-01-15T02:41:09;99855.70;;;1.37;67.41
24013;BME280;12220;50.194;18.948;2024-01-15T02:43:10;99845.63;;;1.41;67.42
24013;BME280;12220;50.194;18.948;2024-01-15T02:45:21;99846.45;;;1.43;67.40
24013;BME280;12220;50.194;18.948;2024-01-15T02:47:23;99837.68;;;1.38;67.27
24013;BME280;12220;50.194;18.948;2024-01-15T02:49:24;99841.39;;;1.35;67.17
24013;BME280;12220;50.194;18.948;2024-01-15T02:51:26;99838.59;;;1.38;67.30
24013;BME280;12220;50.194;18.948;2024-01-15T02:53:36;99833.05;;;1.42;67.38
24013;BME280;12220;50.194;18.948;2024-01-15T02:55:38;99832.14;;;1.41;67.35
24013;BME280;12220;50.194;18.948;2024-01-15T02:57:39;99820.49;;;1.41;67.25
24013;BME280;12220;50.194;18.948;2024-01-15T02:59:40;99824.20;;;1.38;67.04
24013;BME280;12220;50.194;18.948;2024-01-15T03:01:51;99818.73;;;1.39;67.07
24013;BME280;12220;50.194;18.948;2024-01-15T03:03:52;99825.16;;;1.37;66.99
24013;BME280;12220;50.194;18.948;2024-01-15T03:05:56;99817.86;;;1.39;66.92
24013;BME280;12220;50.194;18.948;2024-01-15T03:07:57;99813.19;;;1.43;67.10
24013;BME280;12220;50.194;18.948;2024-01-15T03:10:06;99813.85;;;1.48;67.17
24013;BME280;12220;50.194;18.948;2024-01-15T03:12:08;99814.73;;;1.48;67.19
24013;BME280;12220;50.194;18.948;2024-01-15T03:14:09;99812.09;;;1.47;67.07
24013;BME280;12220;50.194;18.948;2024-01-15T03:16:10;99804.00;;;1.47;66.87
24013;BME280;12220;50.194;18.948;2024-01-15T03:18:21;99805.02;;;1.44;66.74
24013;BME280;12220;50.194;18.948;2024-01-15T03:20:22;99802.47;;;1.41;66.30
24013;BME280;12220;50.194;18.948;2024-01-15T03:22:23;99797.00;;;1.43;66.35
24013;BME280;12220;50.194;18.948;2024-01-15T03:24:25;99790.82;;;1.41;66.39
24013;BME280;12220;50.194;18.948;2024-01-15T03:26:36;99794.46;;;1.39;66.37
24013;BME280;12220;50.194;18.948;2024-01-15T03:28:40;99793.52;;;1.41;66.31
24013;BME280;12220;50.194;18.948;2024-01-15T03:30:42;99788.34;;;1.36;66.14
24013;BME280;12220;50.194;18.948;2024-01-15T03:32:43;99785.42;;;1.41;66.29
24013;BME280;12220;50.194;18.948;2024-01-15T03:34:51;99787.25;;;1.40;66.28
24013;BME280;12220;50.194;18.948;2024-01-15T03:36:53;99771.15;;;1.38;66.13
24013;BME280;12220;50.194;18.948;2024-01-15T03:38:54;99772.09;;;1.37;66.06
24013;BME280;12220;50.194;18.948;2024-01-15T03:40:56;99787.45;;;1.35;66.08
24013;BME280;12220;50.194;18.948;2024-01-15T03:43:06;99791.91;;;1.36;66.00
24013;BME280;12220;50.194;18.948;2024-01-15T03:45:07;99770.24;;;1.38;66.07
24013;BME280;12220;50.194;18.948;2024-01-15T03:47:09;99768.57;;;1.35;65.91
24013;BME280;12220;50.194;18.948;2024-01-15T03:49:10;99771.22;;;1.37;65.87
24013;BME280;12220;50.194;18.948;2024-01-15T03:51:21;99772.95;;;1.38;65.91
24013;BME280;12220;50.194;18.948;2024-01-15T03:53:22;99765.67;;;1.40;66.01
24013;BME280;12220;50.194;18.948;2024-01-15T03:55:24;99761.21;;;1.39;66.05
24013;BME280;12220;50.194;18.948;2024-01-15T03:57:25;99755.90;;;1.37;65.75
24013;BME280;12220;50.194;18.948;2024-01-15T03:59:36;99748.18;;;1.30;65.57
24013;BME280;12220;50.194;18.948;2024-01-15T04:01:38;99755.38;;;1.29;65.75
24013;BME280;12220;50.194;18.948;2024-01-15T04:03:39;99765.23;;;1.30;65.74
24013;BME280;12220;50.194;18.948;2024-01-15T04:05:40;99756.27;;;1.30;65.77
24013;BME280;12220;50.194;18.948;2024-01-15T04:07:51;99752.69;;;1.29;66.06
24013;BME280;12220;50.194;18.948;2024-01-15T04:09:53;99767.06;;;1.30;66.00
24013;BME280;12220;50.194;18.948;2024-01-15T04:11:54;99770.33;;;1.36;66.17
24013;BME280;12220;50.194;18.948;2024-01-15T04:13:55;99772.09;;;1.37;66.07
24013;BME280;12220;50.194;18.948;2024-01-15T04:16:06;99770.18;;;1.39;66.05
24013;BME280;12220;50.194;18.948;2024-01-15T04:18:08;99760.36;;;1.38;66.02
24013;BME280;12220;50.194;18.948;2024-01-15T04:20:10;99763.05;;;1.38;65.94
24013;BME280;12220;50.194;18.948;2024-01-15T04:22:11;99765.75;;;1.38;66.01
24013;BME280;12220;50.194;18.948;2024-01-15T04:24:21;99762.15;;;1.38;66.15
24013;BME280;12220;50.194;18.948;2024-01-15T04:26:23;99760.63;;;1.32;65.89
24013;BME280;12220;50.194;18.948;2024-01-15T04:28:24;99755.38;;;1.29;65.92
24013;BME280;12220;50.194;18.948;2024-01-15T04:30:25;99762.68;;;1.27;65.93
24013;BME280;12220;50.194;18.948;2024-01-15T04:32:37;99758.16;;;1.28;66.06
24013;BME280;12220;50.194;18.948;2024-01-15T04:34:38;99756.55;;;1.24;66.08
24013;BME280;12220;50.194;18.948;2024-01-15T04:36:40;99750.29;;;1.23;66.14
24013;BME280;12220;50.194;18.948;2024-01-15T04:38:42;99744.96;;;1.21;66.18
24013;BME280;12220;50.194;18.948;2024-01-15T04:40:52;99739.72;;;1.18;66.27
24013;BME280;12220;50.194;18.948;2024-01-15T04:42:54;99738.79;;;1.19;66.31
24013;BME280;12220;50.194;18.948;2024-01-15T04:44:55;99745.98;;;1.19;66.28
24013;BME280;12220;50.194;18.948;2024-01-15T04:46:57;99734.26;;;1.20;66.18
24013;BME280;12220;50.194;18.948;2024-01-15T04:49:07;99732.27;;;1.24;66.32
24013;BME280;12220;50.194;18.948;2024-01-15T04:51:11;99736.81;;;1.23;66.40
24013;BME280;12220;50.194;18.948;2024-01-15T04:53:12;99729.80;;;1.19;66.27
24013;BME280;12220;50.194;18.948;2024-01-15T04:55:13;99736.09;;;1.19;66.38
24013;BME280;12220;50.194;18.948;2024-01-15T04:57:22;99736.88;;;1.21;66.38
24013;BME280;12220;50.194;18.948;2024-01-15T04:59:23;99753.28;;;1.17;66.38
24013;BME280;12220;50.194;18.948;2024-01-15T05:01:25;99748.83;;;1.16;66.41
24013;BME280;12220;50.194;18.948;2024-01-15T05:03:26;99762.31;;;1.16;66.47
24013;BME280;12220;50.194;18.948;2024-01-15T05:05:37;99756.13;;;1.14;66.50
24013;BME280;12220;50.194;18.948;2024-01-15T05:07:38;99756.84;;;1.17;66.53
24013;BME280;12220;50.194;18.948;2024-01-15T05:09:39;99751.52;;;1.16;66.58
24013;BME280;12220;50.194;18.948;2024-01-15T05:11:41;99765.75;;;1.19;66.58
24013;BME280;12220;50.194;18.948;2024-01-15T05:13:52;99757.66;;;1.19;66.65
24013;BME280;12220;50.194;18.948;2024-01-15T05:15:53;99749.57;;;1.19;66.63
24013;BME280;12220;50.194;18.948;2024-01-15T05:17:55;99747.97;;;1.15;66.58
24013;BME280;12220;50.194;18.948;2024-01-15T05:19:56;99754.23;;;1.16;66.58
24013;BME280;12220;50.194;18.948;2024-01-15T05:22:07;99746.13;;;1.16;66.58
24013;BME280;12220;50.194;18.948;2024-01-15T05:24:08;99742.57;;;1.15;66.61
24013;BME280;12220;50.194;18.948;2024-01-15T05:26:10;99749.84;;;1.13;66.63
24013;BME280;12220;50.194;18.948;2024-01-15T05:28:11;99744.45;;;1.13;66.67
24013;BME280;12220;50.194;18.948;2024-01-15T05:30:22;99738.12;;;1.14;66.73
24013;BME280;12220;50.194;18.948;2024-01-15T05:32:23;99738.97;;;1.15;66.88
24013;BME280;12220;50.194;18.948;2024-01-15T05:34:25;99719.62;;;1.07;66.79
24013;BME280;12220;50.194;18.948;2024-01-15T05:36:26;99729.57;;;1.04;66.91
24013;BME280;12220;50.194;18.948;2024-01-15T05:38:37;99730.48;;;1.05;66.92
24013;BME280;12220;50.194;18.948;2024-01-15T05:40:39;99733.09;;;1.07;66.84
24013;BME280;12220;50.194;18.948;2024-01-15T05:42:41;99717.93;;;1.04;66.87
24013;BME280;12220;50.194;18.948;2024-01-15T05:44:43;99729.57;;;1.04;66.97
24013;BME280;12220;50.194;18.948;2024-01-15T05:46:53;99735.05;;;1.03;66.96
24013;BME280;12220;50.194;18.948;2024-01-15T05:48:54;99715.08;;;1.07;67.00
24013;BME280;12220;50.194;18.948;2024-01-15T05:50:55;99725.95;;;1.06;66.83
24013;BME280;12220;50.194;18.948;2024-01-15T05:52:57;99724.26;;;1.03;66.75
24013;BME280;12220;50.194;18.948;2024-01-15T05:55:07;99723.09;;;1.09;66.80
24013;BME280;12220;50.194;18.948;2024-01-15T05:57:10;99734.02;;;1.06;66.75
24013;BME280;12220;50.194;18.948;2024-01-15T05:59:12;99727.77;;;1.05;66.82
24013;BME280;12220;50.194;18.948;2024-01-15T06:01:13;99716.92;;;1.07;66.71
24013;BME280;12220;50.194;18.948;2024-01-15T06:03:22;99728.79;;;1.02;66.65
24013;BME280;12220;50.194;18.948;2024-01-15T06:05:24;99731.48;;;1.02;66.69
24013;BME280;12220;50.194;18.948;2024-01-15T06:07:25;99729.42;;;1.08;66.66
24013;BME280;12220;50.194;18.948;2024-01-15T06:09:27;99728.34;;;1.12;66.70
24013;BME280;12220;50.194;18.948;2024-01-15T06:11:38;99734.55;;;1.14;66.71
24013;BME280;12220;50.194;18.948;2024-01-15T06:13:39;99736.21;;;1.16;66.74
24013;BME280;12220;50.194;18.948;2024-01-15T06:15:40;99729.02;;;1.17;66.54
24013;BME280;12220;50.194;18.948;2024-01-15T06:17:41;99728.04;;;1.18;66.51
24013;BME280;12220;50.194;18.948;2024-01-15T06:19:53;99726.39;;;1.15;66.48
24013;BME280;12220;50.194;18.948;2024-01-15T06:21:54;99725.42;;;1.16;66.49
24013;BME280;12220;50.194;18.948;2024-01-15T06:23:55;99723.84;;;1.12;66.34
24013;BME280;12220;50.194;18.948;2024-01-15T06:26:00;99740.11;;;1.11;66.35
24013;BME280;12220;50.194;18.948;2024-01-15T06:28:08;99745.41;;;1.12;66.37
24013;BME280;12220;50.194;18.948;2024-01-15T06:30:11;99744.66;;;1.09;66.42
24013;BME280;12220;50.194;18.948;2024-01-15T06:32:13;99742.80;;;1.11;66.44
24013;BME280;12220;50.194;18.948;2024-01-15T06:34:15;99746.43;;;1.10;66.40
24013;BME280;12220;50.194;18.948;2024-01-15T06:36:23;99742.04;;;1.07;66.37
24013;BME280;12220;50.194;18.948;2024-01-15T06:38:24;99740.29;;;1.06;66.43
24013;BME280;12220;50.194;18.948;2024-01-15T06:40:27;99735.79;;;1.07;66.50
24013;BME280;12220;50.194;18.948;2024-01-15T06:42:28;99731.27;;;1.07;66.59
24013;BME280;12220;50.194;18.948;2024-01-15T06:44:38;99734.75;;;1.09;66.61
24013;BME280;12220;50.194;18.948;2024-01-15T06:46:43;99733.89;;;1.09;66.61
24013;BME280;12220;50.194;18.948;2024-01-15T06:48:44;99748.30;;;1.08;66.58
24013;BME280;12220;50.194;18.948;2024-01-15T06:50:47;99760.05;;;1.07;66.63
24013;BME280;12220;50.194;18.948;2024-01-15T06:52:53;99755.68;;;1.04;66.60
24013;BME280;12220;50.194;18.948;2024-01-15T06:54:54;99761.93;;;1.04;66.61
24013;BME280;12220;50.194;18.948;2024-01-15T06:56:56;99756.54;;;1.04;66.63
24013;BME280;12220;50.194;18.948;2024-01-15T06:58:57;99770.99;;;1.03;66.68
24013;BME280;12220;50.194;18.948;2024-01-15T07:01:08;99519.97;;;-0.43;66.56
24013;BME280;12220;50.194;18.948;2024-01-15T07:03:12;99777.32;;;1.02;66.63
24013;BME280;12220;50.194;18.948;2024-01-15T07:05:14;99788.88;;;1.04;66.66
24013;BME280;12220;50.194;18.948;2024-01-15T07:07:16;99789.11;;;1.00;66.52
24013;BME280;12220;50.194;18.948;2024-01-15T07:09:23;99789.11;;;1.00;66.54
24013;BME280;12220;50.194;18.948;2024-01-15T07:11:25;99799.88;;;1.00;66.42
24013;BME280;12220;50.194;18.948;2024-01-15T07:13:26;99799.09;;;0.98;66.53
24013;BME280;12220;50.194;18.948;2024-01-15T07:15:27;99797.27;;;0.98;66.52
24013;BME280;12220;50.194;18.948;2024-01-15T07:17:38;99805.28;;;1.00;66.57
24013;BME280;12220;50.194;18.948;2024-01-15T07:19:40;99810.67;;;1.00;66.52
24013;BME280;12220;50.194;18.948;2024-01-15T07:21:41;99813.44;;;0.98;66.49
24013;BME280;12220;50.194;18.948;2024-01-15T07:23:43;99815.34;;;0.96;66.61
24013;BME280;12220;50.194;18.948;2024-01-15T07:28:15;99814.30;;;0.99;66.54
24013;BME280;12220;50.194;18.948;2024-01-15T07:30:16;99852.86;;;1.01;66.62
24013;BME280;12220;50.194;18.948;2024-01-15T07:32:18;99821.30;;;1.03;66.59
24013;BME280;12220;50.194;18.948;2024-01-15T07:34:21;99817.75;;;1.02;66.58
24013;BME280;12220;50.194;18.948;2024-01-15T07:36:30;99821.38;;;1.01;66.39
24013;BME280;12220;50.194;18.948;2024-01-15T07:38:32;99824.08;;;1.01;66.38
24013;BME280;12220;50.194;18.948;2024-01-15T07:40:34;99827.52;;;1.05;66.47
24013;BME280;12220;50.194;18.948;2024-01-15T07:42:35;99133.55;;;-3.91;66.08
24013;BME280;12220;50.194;18.948;2024-01-15T07:44:45;99819.30;;;1.08;66.47
24013;BME280;12220;50.194;18.948;2024-01-15T07:46:47;99823.73;;;1.09;66.48
24013;BME280;12220;50.194;18.948;2024-01-15T07:48:49;99823.69;;;1.11;66.51
24013;BME280;12220;50.194;18.948;2024-01-15T07:50:59;99823.69;;;1.11;66.40
24013;BME280;12220;50.194;18.948;2024-01-15T07:53:01;99823.62;;;1.12;66.36
24013;BME280;12220;50.194;18.948;2024-01-15T07:55:03;99827.16;;;1.13;66.33
24013;BME280;12220;50.194;18.948;2024-01-15T07:57:07;99830.65;;;1.15;66.34
24013;BME280;12220;50.194;18.948;2024-01-15T07:59:08;99827.89;;;1.16;66.38
24013;BME280;12220;50.194;18.948;2024-01-15T08:01:18;99825.27;;;1.15;66.28
24013;BME280;12220;50.194;18.948;2024-01-15T08:03:19;99838.89;;;1.12;66.10
24013;BME280;12220;50.194;18.948;2024-01-15T08:05:21;99838.10;;;1.10;66.16
24013;BME280;12220;50.194;18.948;2024-01-15T08:07:22;99831.88;;;1.08;66.17
24013;BME280;12220;50.194;18.948;2024-01-15T08:09:33;99867.90;;;1.07;66.24
24013;BME280;12220;50.194;18.948;2024-01-15T08:11:35;99838.39;;;1.03;66.23
24013;BME280;12220;50.194;18.948;2024-01-15T08:13:36;99842.95;;;1.01;66.28
24013;BME280;12220;50.194;18.948;2024-01-15T08:15:38;99845.72;;;1.00;66.20
24013;BME280;12220;50.194;18.948;2024-01-15T08:17:48;99917.08;;;0.71;66.28
24013;BME280;12220;50.194;18.948;2024-01-15T08:19:49;99847.70;;;0.96;66.47
24013;BME280;12220;50.194;18.948;2024-01-15T08:21:51;99846.73;;;0.97;66.49
24013;BME280;12220;50.194;18.948;2024-01-15T08:23:52;99837.71;;;0.98;66.58
24013;BME280;12220;50.194;18.948;2024-01-15T08:26:03;99843.96;;;0.99;66.64
24013;BME280;12220;50.194;18.948;2024-01-15T08:28:07;99839.39;;;1.01;66.67
24013;BME280;12220;50.194;18.948;2024-01-15T08:30:10;99843.82;;;1.02;66.83
24013;BME280;12220;50.194;18.948;2024-01-15T08:32:12;99844.57;;;1.06;66.88
24013;BME280;12220;50.194;18.948;2024-01-15T08:34:18;99834.59;;;1.08;67.18
24013;BME280;12220;50.194;18.948;2024-01-15T08:36:21;99839.97;;;1.08;67.81
24013;BME280;12220;50.194;18.948;2024-01-15T08:38:22;99835.40;;;1.10;68.27
24013;BME280;12220;50.194;18.948;2024-01-15T08:40:24;99835.73;;;1.02;69.90
24013;BME280;12220;50.194;18.948;2024-01-15T08:42:33;99840.39;;;0.98;70.27
24013;BME280;12220;50.194;18.948;2024-01-15T08:44:35;99840.47;;;0.97;70.53
24013;BME280;12220;50.194;18.948;2024-01-15T08:46:37;99841.34;;;0.97;70.67
24013;BME280;12220;50.194;18.948;2024-01-15T08:48:38;99835.73;;;1.02;70.73
24013;BME280;12220;50.194;18.948;2024-01-15T08:50:49;99831.95;;;1.06;70.37
24013;BME280;12220;50.194;18.948;2024-01-15T08:52:50;99835.26;;;1.13;70.18
24013;BME280;12220;50.194;18.948;2024-01-15T08:54:52;99835.19;;;1.14;69.45
24013;BME280;12220;50.194;18.948;2024-01-15T08:56:53;99841.26;;;1.19;69.09
24013;BME280;12220;50.194;18.948;2024-01-15T08:59:04;99839.36;;;1.21;68.16
24013;BME280;12220;50.194;18.948;2024-01-15T09:01:05;99842.12;;;1.20;67.61
24013;BME280;12220;50.194;18.948;2024-01-15T09:03:07;99855.46;;;1.23;67.76
24013;BME280;12220;50.194;18.948;2024-01-15T09:05:09;99848.91;;;1.29;67.79
24013;BME280;12220;50.194;18.948;2024-01-15T09:07:24;99850.52;;;1.33;67.70
24013;BME280;12220;50.194;18.948;2024-01-15T09:09:27;99860.48;;;1.31;67.49
24013;BME280;12220;50.194;18.948;2024-01-15T09:11:32;99856.85;;;1.32;67.53
24013;BME280;12220;50.194;18.948;2024-01-15T09:13:34;99852.26;;;1.34;67.65
24013;BME280;12220;50.194;18.948;2024-01-15T09:15:36;99868.32;;;1.37;67.71
24013;BME280;12220;50.194;18.948;2024-01-15T09:17:38;99861.02;;;1.39;67.61
24013;BME280;12220;50.194;18.948;2024-01-15T09:19:39;99858.70;;;1.31;67.06
24013;BME280;12220;50.194;18.948;2024-01-15T09:21:41;99855.25;;;1.28;67.01
24013;BME280;12220;50.194;18.948;2024-01-15T09:23:50;99862.54;;;1.26;67.05
24013;BME280;12220;50.194;18.948;2024-01-15T09:25:52;99855.46;;;1.23;67.07
24013;BME280;12220;50.194;18.948;2024-01-15T09:27:53;99866.97;;;1.27;67.15
24013;BME280;12220;50.194;18.948;2024-01-15T09:29:55;99863.33;;;1.28;67.10
24013;BME280;12220;50.194;18.948;2024-01-15T09:32:06;99858.95;;;1.25;66.85
24013;BME280;12220;50.194;18.948;2024-01-15T09:34:08;99858.08;;;1.25;66.66
24013;BME280;12220;50.194;18.948;2024-01-15T09:36:09;99855.61;;;1.20;66.43
24013;BME280;12220;50.194;18.948;2024-01-15T09:38:16;99859.10;;;1.22;66.46
24013;BME280;12220;50.194;18.948;2024-01-15T09:40:21;99852.77;;;1.23;66.54
24013;BME280;12220;50.194;18.948;2024-01-15T09:42:24;99855.46;;;1.23;66.25
24013;BME280;12220;50.194;18.948;2024-01-15T09:44:29;99848.23;;;1.24;66.25
24013;BME280;12220;50.194;18.948;2024-01-15T09:46:35;99848.31;;;1.22;65.89
24013;BME280;12220;50.194;18.948;2024-01-15T09:48:36;99866.03;;;1.28;66.02
24013;BME280;12220;50.194;18.948;2024-01-15T09:50:39;99863.63;;;1.21;65.51
24013;BME280;12220;50.194;18.948;2024-01-15T09:52:41;99859.10;;;1.22;65.48
24013;BME280;12220;50.194;18.948;2024-01-15T09:54:44;99855.46;;;1.23;65.37
24013;BME280;12220;50.194;18.948;2024-01-15T09:56:54;99849.98;;;1.25;65.43
24013;BME280;12220;50.194;18.948;2024-01-15T09:58:56;99854.78;;;1.18;65.08
24013;BME280;12220;50.194;18.948;2024-01-15T10:00:59;99846.58;;;1.21;65.26
24013;BME280;12220;50.194;18.948;2024-01-15T10:03:03;99850.75;;;1.28;65.36
24013;BME280;12220;50.194;18.948;2024-01-15T10:05:09;99846.00;;;1.33;65.65
24013;BME280;12220;50.194;18.948;2024-01-15T10:07:15;99847.47;;;1.41;65.57
24013;BME280;12220;50.194;18.948;2024-01-15T10:09:20;99846.38;;;1.45;65.34
24013;BME280;12220;50.194;18.948;2024-01-15T10:11:22;99847.02;;;1.50;65.20
24013;BME280;12220;50.194;18.948;2024-01-15T10:13:25;99843.53;;;1.48;64.61
24013;BME280;12220;50.194;18.948;2024-01-15T10:15:35;99844.41;;;1.48;64.62
24013;BME280;12220;50.194;18.948;2024-01-15T10:17:39;99839.75;;;1.52;64.61
24013;BME280;12220;50.194;18.948;2024-01-15T10:19:41;99847.47;;;1.60;64.67
24013;BME280;12220;50.194;18.948;2024-01-15T10:21:44;99839.30;;;1.61;64.47
24013;BME280;12220;50.194;18.948;2024-01-15T10:23:49;99831.29;;;1.60;64.13
24013;BME280;12220;50.194;18.948;2024-01-15T10:25:50;99839.01;;;1.67;64.24
24013;BME280;12220;50.194;18.948;2024-01-15T10:28:02;99839.66;;;1.72;64.42
24013;BME280;12220;50.194;18.948;2024-01-15T10:30:05;99839.30;;;1.80;64.43
24013;BME280;12220;50.194;18.948;2024-01-15T10:32:11;99832.72;;;1.86;64.40
24013;BME280;12220;50.194;18.948;2024-01-15T10:34:15;99836.95;;;1.91;64.29
24013;BME280;12220;50.194;18.948;2024-01-15T10:36:18;99835.63;;;2.00;64.36
24013;BME280;12220;50.194;18.948;2024-01-15T10:38:21;99840.72;;;2.06;64.20
24013;BME280;12220;50.194;18.948;2024-01-15T10:40:23;99835.24;;;2.08;63.72
24013;BME280;12220;50.194;18.948;2024-01-15T10:42:25;99834.22;;;2.11;63.61
24013;BME280;12220;50.194;18.948;2024-01-15T10:44:27;99834.88;;;2.16;63.75
24013;BME280;12220;50.194;18.948;2024-01-15T10:46:35;99838.52;;;2.15;62.41
24013;BME280;12220;50.194;18.948;2024-01-15T10:48:39;99860.36;;;2.10;61.50
24013;BME280;12220;50.194;18.948;2024-01-15T10:50:41;99833.74;;;2.20;62.18
24013;BME280;12220;50.194;18.948;2024-01-15T10:52:43;99827.25;;;2.24;62.35
24013;BME280;12220;50.194;18.948;2024-01-15T10:54:50;99833.30;;;2.29;62.18
24013;BME280;12220;50.194;18.948;2024-01-15T10:56:53;99829.31;;;2.19;60.77